createdAt,value
2018-10-11T00:01:25.454Z,15.30
2018-10-11T00:03:51.710Z,15.58
2018-10-11T00:06:18.734Z,14.80
2018-10-11T00:08:46.251Z,14.65
2018-10-11T00:11:13.224Z,15.70
2018-10-11T00:13:40.223Z,15.08
2018-10-11T00:16:07.206Z,15.10
2018-10-11T00:18:34.192Z,14.78
2018-10-11T00:21:01.202Z,15.63
2018-10-11T00:23:28.159Z,15.47
2018-10-11T00:25:55.273Z,15.45
2018-10-11T00:28:22.255Z,14.93
2018-10-11T00:30:49.290Z,15.15
2018-10-11T00:33:16.178Z,14.87
2018-10-11T00:35:43.174Z,15.25
2018-10-11T00:38:10.138Z,14.70
2018-10-11T00:40:37.115Z,15.70
2018-10-11T00:43:04.090Z,15.38
2018-10-11T00:45:31.067Z,16.05
2018-10-11T00:47:58.022Z,15.47
2018-10-11T00:50:25.006Z,16.02
2018-10-11T00:52:51.981Z,15.88
2018-10-11T00:55:18.960Z,16.60
2018-10-11T00:57:45.946Z,16.02
2018-10-11T01:00:12.901Z,16.20
2018-10-11T01:02:40.127Z,16.00
2018-10-11T01:05:07.125Z,16.52
2018-10-11T01:07:34.093Z,16.20
2018-10-11T01:10:01.700Z,16.12
2018-10-11T01:12:28.659Z,16.20
2018-10-11T01:14:55.635Z,16.95
2018-10-11T01:17:23.065Z,16.73
2018-10-11T01:19:50.026Z,16.85
2018-10-11T01:22:16.985Z,16.27
2018-10-11T01:24:43.970Z,17.40
2018-10-11T01:27:10.950Z,16.73
2018-10-11T01:29:38.064Z,18.45
2018-10-11T01:32:05.452Z,17.52
2018-10-11T01:34:32.438Z,17.23
2018-10-11T01:36:59.430Z,17.05
2018-10-11T01:39:26.390Z,16.97
2018-10-11T01:41:53.403Z,17.67
2018-10-11T01:44:20.358Z,17.27
2018-10-11T01:46:47.318Z,17.02
2018-10-11T01:49:14.326Z,17.20
2018-10-11T01:51:41.302Z,18.32
2018-10-11T01:54:08.266Z,17.77
2018-10-11T01:56:35.311Z,18.87
2018-10-11T01:59:02.245Z,18.50
2018-10-11T02:01:29.251Z,18.35
2018-10-11T02:03:56.255Z,18.63
2018-10-11T02:06:23.282Z,18.20
2018-10-11T02:08:50.264Z,18.48
2018-10-11T02:11:17.945Z,19.12
2018-10-11T02:13:44.930Z,19.80
2018-10-11T02:16:12.253Z,19.40
2018-10-11T02:18:39.340Z,18.15
2018-10-11T02:21:06.426Z,18.32
2018-10-11T02:23:33.473Z,18.50
2018-10-11T02:26:00.485Z,18.30
2018-10-11T02:28:27.459Z,18.37
2018-10-11T02:30:54.433Z,19.57
2018-10-11T02:33:21.433Z,19.98
2018-10-11T02:35:48.385Z,20.08
2018-10-11T02:38:15.401Z,20.32
2018-10-11T02:40:42.482Z,20.37
2018-10-11T02:43:09.453Z,19.48
2018-10-11T02:45:36.414Z,19.73
2018-10-11T02:48:03.455Z,20.60
2018-10-11T02:50:30.402Z,20.70
2018-10-11T02:52:57.365Z,20.68
2018-10-11T02:55:25.479Z,21.57
2018-10-11T02:58:04.133Z,20.85
2018-10-11T03:00:31.968Z,21.62
2018-10-11T03:03:00.741Z,21.45
2018-10-11T03:05:27.728Z,21.33
2018-10-11T03:07:54.720Z,21.05
2018-10-11T03:10:21.705Z,21.85
2018-10-11T03:12:49.229Z,22.63
2018-10-11T03:15:16.209Z,22.75
2018-10-11T03:17:43.182Z,21.67
2018-10-11T03:20:10.157Z,22.13
2018-10-11T03:22:37.147Z,21.55
2018-10-11T03:25:04.214Z,21.73
2018-10-11T03:27:31.133Z,22.13
2018-10-11T03:29:58.126Z,22.63
2018-10-11T03:32:25.103Z,22.60
2018-10-11T03:34:52.056Z,21.52
2018-10-11T03:37:19.048Z,22.32
2018-10-11T03:39:46.010Z,21.62
2018-10-11T03:42:12.974Z,21.90
2018-10-11T03:44:39.961Z,23.02
2018-10-11T03:47:06.930Z,22.60
2018-10-11T03:49:33.896Z,21.48
2018-10-11T03:52:00.881Z,23.07
2018-10-11T03:54:27.866Z,22.90
2018-10-11T03:56:55.000Z,22.22
2018-10-11T03:59:21.985Z,22.90
2018-10-11T04:01:48.950Z,21.77
2018-10-11T04:04:15.875Z,22.30
2018-10-11T04:06:42.849Z,22.40
2018-10-11T04:09:09.837Z,23.42
2018-10-11T04:11:36.785Z,22.75
2018-10-11T04:14:04.384Z,23.13
2018-10-11T04:16:31.314Z,22.30
2018-10-11T04:18:58.246Z,22.70
2018-10-11T04:21:25.246Z,22.25
2018-10-11T04:23:52.193Z,22.30
2018-10-11T04:26:19.134Z,22.37
2018-10-11T04:28:46.107Z,21.70
2018-10-11T04:31:13.018Z,22.30
2018-10-11T04:33:39.947Z,22.17
2018-10-11T04:36:06.951Z,23.85
2018-10-11T04:38:33.838Z,22.05
2018-10-11T04:41:00.782Z,22.58
2018-10-11T04:43:27.749Z,23.27
2018-10-11T04:45:54.717Z,22.30
2018-10-11T04:48:21.658Z,22.15
2018-10-11T04:50:48.646Z,22.48
2018-10-11T04:53:15.614Z,22.70
2018-10-11T04:55:43.557Z,22.73
2018-10-11T04:58:10.634Z,22.58
2018-10-11T05:00:37.637Z,22.00
2018-10-11T05:03:04.906Z,22.32
2018-10-11T05:05:31.862Z,21.85
2018-10-11T05:07:58.823Z,21.70
2018-10-11T05:10:25.762Z,21.85
2018-10-11T05:12:52.736Z,22.80
2018-10-11T05:15:20.118Z,22.13
2018-10-11T05:17:47.918Z,22.55
2018-10-11T05:20:14.913Z,21.97
2018-10-11T05:22:41.856Z,21.77
2018-10-11T05:25:08.809Z,21.42
2018-10-11T05:27:35.770Z,21.77
2018-10-11T05:30:02.862Z,21.85
2018-10-11T05:32:29.878Z,21.10
2018-10-11T05:34:56.854Z,21.23
2018-10-11T05:37:23.787Z,22.42
2018-10-11T05:39:50.722Z,22.73
2018-10-11T05:42:17.667Z,22.27
2018-10-11T05:44:44.598Z,20.92
2018-10-11T05:47:11.603Z,21.82
2018-10-11T05:49:38.611Z,21.40
2018-10-11T05:52:06.026Z,22.52
2018-10-11T05:54:32.954Z,21.82
2018-10-11T05:56:59.902Z,22.73
2018-10-11T05:59:26.839Z,21.85
2018-10-11T06:01:53.761Z,22.62
2018-10-11T06:04:20.770Z,21.95
2018-10-11T06:06:48.320Z,24.35
2018-10-11T06:09:15.691Z,25.12
2018-10-11T06:11:43.288Z,22.77
2018-10-11T06:14:10.692Z,22.87
2018-10-11T06:16:38.207Z,24.60
2018-10-11T06:19:05.426Z,21.00
2018-10-11T06:21:32.391Z,20.88
2018-10-11T06:23:59.346Z,21.05
2018-10-11T06:26:26.310Z,21.60
2018-10-11T06:28:53.257Z,21.82
2018-10-11T06:31:20.323Z,22.10
2018-10-11T06:33:47.293Z,21.23
2018-10-11T06:36:14.788Z,20.80
2018-10-11T06:38:41.683Z,21.65
2018-10-11T06:41:08.655Z,21.37
2018-10-11T06:43:35.723Z,21.48
2018-10-11T06:46:02.678Z,21.48
2018-10-11T06:48:29.637Z,20.30
2018-10-11T06:50:56.577Z,20.00
2018-10-11T06:53:23.508Z,20.03
2018-10-11T06:55:50.491Z,19.60
2018-10-11T06:58:17.430Z,20.40
2018-10-11T07:00:44.370Z,20.25
2018-10-11T07:03:11.336Z,20.12
2018-10-11T07:05:38.318Z,19.82
2018-10-11T07:08:05.333Z,19.52
2018-10-11T07:10:32.322Z,19.00
2018-10-11T07:12:59.319Z,19.07
2018-10-11T07:15:26.628Z,18.35
2018-10-11T07:17:53.958Z,17.70
2018-10-11T07:20:20.894Z,18.67
2018-10-11T07:22:47.838Z,18.23
2018-10-11T07:25:14.813Z,18.17
2018-10-11T07:27:41.764Z,18.85
2018-10-11T07:30:09.752Z,18.02
2018-10-11T07:32:35.772Z,18.07
2018-10-11T07:35:02.754Z,17.57
2018-10-11T07:37:29.641Z,18.10
2018-10-11T07:39:56.601Z,17.03
2018-10-11T07:42:23.534Z,17.75
2018-10-11T07:44:50.502Z,17.15
2018-10-11T07:47:17.489Z,16.32
2018-10-11T07:49:44.400Z,15.40
2018-10-11T07:52:11.325Z,15.48
2018-10-11T07:54:38.454Z,16.10
2018-10-11T07:57:05.611Z,15.83
2018-10-11T07:59:32.579Z,16.15
2018-10-11T08:01:59.527Z,15.72
2018-10-11T08:04:26.475Z,16.77
2018-10-11T08:06:53.436Z,16.07
2018-10-11T08:09:20.391Z,17.05
2018-10-11T08:11:47.511Z,17.62
2018-10-11T08:14:14.722Z,17.83
2018-10-11T08:16:41.826Z,18.67
2018-10-11T08:19:09.464Z,18.67
2018-10-11T08:21:36.239Z,19.87
2018-10-11T08:24:03.199Z,18.80
2018-10-11T08:26:30.606Z,19.27
2018-10-11T08:28:57.067Z,18.70
2018-10-11T08:31:24.031Z,19.27
2018-10-11T08:33:50.986Z,17.62
2018-10-11T08:36:17.957Z,19.17
2018-10-11T08:38:44.866Z,18.10
2018-10-11T08:41:11.814Z,17.87
2018-10-11T08:43:38.892Z,17.80
2018-10-11T08:46:05.758Z,17.15
2018-10-11T08:48:32.743Z,17.57
2018-10-11T08:50:59.717Z,17.05
2018-10-11T08:53:26.791Z,16.97
2018-10-11T08:55:53.721Z,16.77
2018-10-11T08:58:20.646Z,15.67
2018-10-11T09:00:47.602Z,14.85
2018-10-11T09:03:14.570Z,15.25
2018-10-11T09:05:41.572Z,13.93
2018-10-11T09:08:08.427Z,13.22
2018-10-11T09:10:38.346Z,13.00
2018-10-11T09:13:02.298Z,12.55
2018-10-11T09:15:29.259Z,10.80
2018-10-11T09:20:21.386Z,11.10
2018-10-11T09:22:48.466Z,9.90
2018-10-11T09:25:15.813Z,9.43
2018-10-11T09:27:42.361Z,9.03
2018-10-11T09:30:09.347Z,8.88
2018-10-11T09:32:36.291Z,8.90
2018-10-11T09:35:03.231Z,8.80
2018-10-11T09:37:30.358Z,8.60
2018-10-11T09:39:57.302Z,8.88
2018-10-11T09:42:24.235Z,9.00
2018-10-11T09:44:51.191Z,9.08
2018-10-11T09:47:18.101Z,8.77
2018-10-11T09:49:45.026Z,9.63
2018-10-11T09:52:11.970Z,10.98
2018-10-11T09:54:38.954Z,9.70
2018-10-11T09:57:23.619Z,8.78
2018-10-11T09:59:50.567Z,9.00
2018-10-11T10:02:17.525Z,10.72
2018-10-11T10:04:45.776Z,9.68
2018-10-11T10:07:12.745Z,9.55
2018-10-11T10:09:40.334Z,9.90
2018-10-11T10:12:08.171Z,10.28
2018-10-11T10:14:35.235Z,9.60
2018-10-11T10:17:02.204Z,9.55
2018-10-11T10:19:29.175Z,9.10
2018-10-11T10:21:56.432Z,10.80
2018-10-11T10:24:23.415Z,10.00
2018-10-11T10:26:50.403Z,9.63
2018-10-11T10:29:18.222Z,8.40
2018-10-11T10:31:45.154Z,9.40
2018-10-11T10:34:12.124Z,9.20
2018-10-11T10:36:39.050Z,9.83
2018-10-11T10:39:06.995Z,10.50
2018-10-11T10:41:33.943Z,10.00
2018-10-11T10:44:00.899Z,10.30
2018-10-11T10:46:27.858Z,11.33
2018-10-11T10:48:54.821Z,10.57
2018-10-11T10:51:21.871Z,10.30
2018-10-11T10:53:48.810Z,10.45
2018-10-11T10:56:15.778Z,10.38
2018-10-11T10:58:42.711Z,10.70
2018-10-11T11:01:09.634Z,9.78
2018-10-11T11:03:36.602Z,10.53
2018-10-11T11:06:03.539Z,10.20
2018-10-11T11:08:30.566Z,9.60
2018-10-11T11:10:57.514Z,9.57
2018-10-11T11:13:24.466Z,11.30
2018-10-11T11:15:51.418Z,9.63
2018-10-11T11:18:18.391Z,10.35
2018-10-11T11:20:45.318Z,11.33
2018-10-11T11:23:12.762Z,11.08
2018-10-11T11:25:39.706Z,13.47
2018-10-11T11:28:06.634Z,11.08
2018-10-11T11:30:33.582Z,10.35
2018-10-11T11:33:00.612Z,9.78
2018-10-11T11:35:27.678Z,9.07
2018-10-11T11:37:54.618Z,8.43
2018-10-11T11:40:21.591Z,8.43
2018-10-11T11:42:48.529Z,9.55
2018-10-11T11:45:15.470Z,7.37
2018-10-11T11:47:42.415Z,10.27
2018-10-11T11:50:09.387Z,7.25
2018-10-11T11:52:36.355Z,8.05
2018-10-11T11:55:03.327Z,7.22
2018-10-11T11:57:30.238Z,9.97
2018-10-11T11:59:57.178Z,8.13
2018-10-11T12:02:24.138Z,9.25
2018-10-11T12:04:51.080Z,10.08
2018-10-11T12:07:18.001Z,10.40
2018-10-11T12:09:44.963Z,6.92
2018-10-11T12:12:53.734Z,6.78
2018-10-11T12:15:22.109Z,6.47
2018-10-11T12:17:49.682Z,6.72
2018-10-11T12:20:16.639Z,6.75
2018-10-11T12:22:43.614Z,6.70
2018-10-11T12:25:11.112Z,6.55
2018-10-11T12:27:38.047Z,8.05
2018-10-11T12:30:05.029Z,7.75
2018-10-11T12:32:31.946Z,8.20
2018-10-11T12:34:58.883Z,8.00
2018-10-11T12:37:25.845Z,7.53
2018-10-11T12:39:52.774Z,8.00
2018-10-11T12:42:19.759Z,7.67
2018-10-11T12:44:46.755Z,6.30
2018-10-11T12:47:13.702Z,8.60
2018-10-11T12:49:44.223Z,7.45
2018-10-11T12:52:07.706Z,8.15
2018-10-11T12:54:34.549Z,8.08
2018-10-11T12:57:01.586Z,8.60
2018-10-11T12:59:28.447Z,7.25
2018-10-11T13:01:55.398Z,9.03
2018-10-11T13:04:22.339Z,6.70
2018-10-11T13:06:49.331Z,8.23
2018-10-11T13:09:16.336Z,6.37
2018-10-11T13:11:43.234Z,7.85
2018-10-11T13:14:10.205Z,6.87
2018-10-11T13:16:37.171Z,7.60
2018-10-11T13:19:04.170Z,8.90
2018-10-11T13:21:31.129Z,6.67
2018-10-11T13:23:58.048Z,7.53
2018-10-11T13:26:25.708Z,6.67
2018-10-11T13:28:52.703Z,9.75
2018-10-11T13:31:19.609Z,6.15
2018-10-11T13:33:46.545Z,6.03
2018-10-11T13:36:13.488Z,7.20
2018-10-11T13:38:40.435Z,6.15
2018-10-11T13:41:07.441Z,6.90
2018-10-11T13:43:34.366Z,5.90
2018-10-11T13:46:02.995Z,6.50
2018-10-11T13:48:28.425Z,8.93
2018-10-11T13:50:55.504Z,5.95
2018-10-11T13:53:24.736Z,6.25
2018-10-11T13:55:54.895Z,6.28
2018-10-11T13:58:16.398Z,7.55
2018-10-11T14:00:43.355Z,7.40
2018-10-11T14:03:10.373Z,5.65
2018-10-11T14:05:37.327Z,5.70
2018-10-11T14:08:04.234Z,5.70
2018-10-11T14:10:31.262Z,8.50
2018-10-11T14:12:58.146Z,7.15
2018-10-11T14:15:25.090Z,5.87
2018-10-11T14:17:52.102Z,5.37
2018-10-11T14:20:18.983Z,5.87
2018-10-11T14:22:45.939Z,5.47
2018-10-11T14:25:12.886Z,6.20
2018-10-11T14:27:40.680Z,5.37
2018-10-11T14:30:07.696Z,6.45
2018-10-11T14:32:34.634Z,6.75
2018-10-11T14:35:01.624Z,8.13
2018-10-11T14:37:28.555Z,7.17
2018-10-11T14:39:55.492Z,7.85
2018-10-11T14:42:22.438Z,5.42
2018-10-11T14:44:49.370Z,7.08
2018-10-11T14:47:16.322Z,8.18
2018-10-11T14:49:43.282Z,7.90
2018-10-11T14:52:10.239Z,8.13
2018-10-11T14:54:37.167Z,5.37
2018-10-11T14:57:05.506Z,10.00
2018-10-11T14:59:32.437Z,6.05
2018-10-11T15:01:59.526Z,4.75
2018-10-11T15:04:26.547Z,5.05
2018-10-11T15:06:53.667Z,5.10
2018-10-11T15:09:20.625Z,5.30
2018-10-11T15:11:47.644Z,4.95
2018-10-11T15:14:14.562Z,6.00
2018-10-11T15:16:41.517Z,7.42
2018-10-11T15:19:08.474Z,5.80
2018-10-11T15:21:35.432Z,8.80
2018-10-11T15:24:02.556Z,5.47
2018-10-11T15:26:29.442Z,6.90
2018-10-11T15:28:56.879Z,7.97
2018-10-11T15:31:23.965Z,6.63
2018-10-11T15:33:50.926Z,6.25
2018-10-11T15:36:17.884Z,7.00
2018-10-11T15:38:44.849Z,6.10
2018-10-11T15:41:11.775Z,8.40
2018-10-11T15:43:38.720Z,6.67
2018-10-11T15:46:05.699Z,8.57
2018-10-11T15:48:32.746Z,7.10
2018-10-11T15:50:59.674Z,9.83
2018-10-11T15:53:26.623Z,7.50
2018-10-11T15:55:53.564Z,7.50
2018-10-11T15:58:20.557Z,6.63
2018-10-11T16:00:47.429Z,7.87
2018-10-11T16:03:14.375Z,7.30
2018-10-11T16:05:41.506Z,6.78
2018-10-11T16:08:08.414Z,10.78
2018-10-11T16:10:35.383Z,9.10
2018-10-11T16:13:02.372Z,7.00
2018-10-11T16:15:29.342Z,9.43
2018-10-11T16:17:56.307Z,6.92
2018-10-11T16:20:23.267Z,6.22
2018-10-11T16:22:50.223Z,9.85
2018-10-11T16:25:17.175Z,5.90
2018-10-11T16:27:44.118Z,9.15
2018-10-11T16:30:11.278Z,10.13
2018-10-11T16:32:38.242Z,10.72
2018-10-11T16:35:05.170Z,8.33
2018-10-11T16:37:32.101Z,8.28
2018-10-11T16:39:59.070Z,7.42
2018-10-11T16:42:26.022Z,12.15
2018-10-11T16:44:52.962Z,8.35
2018-10-11T16:47:19.932Z,16.62
2018-10-11T16:49:47.021Z,12.10
2018-10-11T16:52:13.915Z,13.62
2018-10-11T16:54:42.758Z,10.40
2018-10-11T16:57:10.493Z,8.55
2018-10-11T16:59:37.482Z,16.70
2018-10-11T17:02:04.438Z,15.80
2018-10-11T17:04:31.423Z,13.48
2018-10-11T17:06:58.313Z,11.03
2018-10-11T17:09:25.311Z,9.00
2018-10-11T17:11:52.450Z,12.43
2018-10-11T17:14:19.373Z,10.90
2018-10-11T17:16:46.329Z,9.37
2018-10-11T17:19:13.267Z,11.00
2018-10-11T17:21:40.269Z,12.05
2018-10-11T17:24:07.163Z,13.10
2018-10-11T17:26:34.131Z,14.38
2018-10-11T17:29:01.075Z,10.55
2018-10-11T17:31:28.482Z,11.00
2018-10-11T17:33:55.439Z,9.98
2018-10-11T17:36:22.386Z,13.98
2018-10-11T17:38:49.356Z,12.85
2018-10-11T17:41:16.323Z,11.18
2018-10-11T17:43:43.466Z,11.30
2018-10-11T17:46:10.406Z,10.90
2018-10-11T17:48:37.831Z,8.60
2018-10-11T17:51:04.759Z,11.48
2018-10-11T17:53:31.734Z,9.90
2018-10-11T17:55:58.674Z,10.58
2018-10-11T17:58:25.614Z,11.68
2018-10-11T18:00:52.558Z,11.30
2018-10-11T18:03:19.575Z,10.55
2018-10-11T18:05:46.583Z,10.30
2018-10-11T18:08:14.059Z,9.03
2018-10-11T18:10:41.007Z,7.95
2018-10-11T18:13:08.079Z,11.75
2018-10-11T18:15:35.071Z,9.00
2018-10-11T18:18:01.997Z,8.53
2018-10-11T18:20:28.991Z,8.40
2018-10-11T18:22:55.949Z,8.53
2018-10-11T18:25:22.955Z,8.25
2018-10-11T18:27:49.902Z,8.78
2018-10-11T18:30:16.851Z,10.78
2018-10-11T18:32:44.414Z,8.75
2018-10-11T18:35:11.370Z,12.73
2018-10-11T18:37:38.362Z,25.68
2018-10-11T18:40:05.326Z,9.88
2018-10-11T18:42:32.271Z,8.63
2018-10-11T18:44:59.235Z,9.03
2018-10-11T18:47:26.199Z,12.55
2018-10-11T18:49:53.183Z,8.23
2018-10-11T18:52:20.139Z,9.53
2018-10-11T18:54:47.088Z,10.90
2018-10-11T18:57:14.035Z,9.10
2018-10-11T18:59:40.997Z,9.30
2018-10-11T19:02:07.943Z,8.73
2018-10-11T19:04:34.925Z,13.08
2018-10-11T19:07:01.848Z,20.43
2018-10-11T19:09:28.790Z,8.73
2018-10-11T19:11:55.731Z,13.88
2018-10-11T19:14:22.696Z,9.63
2018-10-11T19:16:49.634Z,10.18
2018-10-11T19:19:16.566Z,9.93
2018-10-11T19:21:43.555Z,10.93
2018-10-11T19:24:10.500Z,9.78
2018-10-11T19:26:37.436Z,8.38
2018-10-11T19:29:04.394Z,9.27
2018-10-11T19:31:31.359Z,7.70
2018-10-11T19:33:59.385Z,11.38
2018-10-11T19:36:26.355Z,8.75
2018-10-11T19:38:53.301Z,10.65
2018-10-11T19:41:20.252Z,11.45
2018-10-11T19:43:47.239Z,8.28
2018-10-11T19:46:14.313Z,9.05
2018-10-11T19:48:41.249Z,9.13
2018-10-11T19:51:08.209Z,8.53
2018-10-11T19:53:35.177Z,8.13
2018-10-11T19:56:02.105Z,8.60
2018-10-11T19:58:29.074Z,8.05
2018-10-11T20:00:56.031Z,8.63
2018-10-11T20:03:22.977Z,7.90
2018-10-11T20:05:49.923Z,8.10
2018-10-11T20:08:16.974Z,9.13
2018-10-11T20:10:43.822Z,8.35
2018-10-11T20:13:10.758Z,8.33
2018-10-11T20:15:37.698Z,8.30
2018-10-11T20:18:05.015Z,7.95
2018-10-11T20:20:31.978Z,8.40
2018-10-11T20:22:58.933Z,7.90
2018-10-11T20:25:25.883Z,7.83
2018-10-11T20:27:52.850Z,8.55
2018-10-11T20:30:19.792Z,9.13
2018-10-11T20:32:46.737Z,8.48
2018-10-11T20:35:14.554Z,9.48
2018-10-11T20:37:41.504Z,8.35
2018-10-11T20:40:08.438Z,9.75
2018-10-11T20:42:35.383Z,8.90
2018-10-11T20:45:02.301Z,10.67
2018-10-11T20:47:29.250Z,8.90
2018-10-11T20:49:56.223Z,8.85
2018-10-11T20:52:23.168Z,8.70
2018-10-11T20:54:50.084Z,9.25
2018-10-11T20:57:17.066Z,8.63
2018-10-11T20:59:44.007Z,9.43
2018-10-11T21:02:10.955Z,9.25
2018-10-11T21:04:37.918Z,8.68
2018-10-11T21:07:05.398Z,10.17
2018-10-11T21:09:32.371Z,10.53
2018-10-11T21:11:59.379Z,9.40
2018-10-11T21:14:26.345Z,9.28
2018-10-11T21:16:53.311Z,8.90
2018-10-11T21:19:20.302Z,8.70
2018-10-11T21:21:47.764Z,9.98
2018-10-11T21:24:14.256Z,8.43
2018-10-11T21:26:41.254Z,8.73
2018-10-11T21:29:08.238Z,9.18
2018-10-11T21:31:35.197Z,8.60
2018-10-11T21:34:02.163Z,9.33
2018-10-11T21:36:30.476Z,8.60
2018-10-11T21:38:57.423Z,9.20
2018-10-11T21:41:24.413Z,9.33
2018-10-11T21:43:51.367Z,8.63
2018-10-11T21:46:18.386Z,8.58
2018-10-11T21:48:45.302Z,9.05
2018-10-11T21:51:12.250Z,8.90
2018-10-11T21:53:39.546Z,11.35
2018-10-11T21:56:06.577Z,9.90
2018-10-11T21:58:33.513Z,8.78
2018-10-11T22:01:06.258Z,11.68
2018-10-11T22:03:33.237Z,10.63
2018-10-11T22:06:00.193Z,9.48
2018-10-11T22:08:27.179Z,10.30
2018-10-11T22:10:54.116Z,8.93
2018-10-11T22:13:21.075Z,9.70
2018-10-11T22:15:48.021Z,8.95
2018-10-11T22:18:15.005Z,10.43
2018-10-11T22:20:42.047Z,9.90
2018-10-11T22:23:08.956Z,9.20
2018-10-11T22:25:35.924Z,9.18
2018-10-11T22:28:02.862Z,9.40
2018-10-11T22:30:29.822Z,9.10
2018-10-11T22:32:56.799Z,9.23
2018-10-11T22:35:23.902Z,10.93
2018-10-11T22:37:55.801Z,8.88
2018-10-11T22:40:22.775Z,8.78
2018-10-11T22:42:49.747Z,9.80
2018-10-11T22:45:16.687Z,8.45
2018-10-11T22:47:43.655Z,8.90
2018-10-11T22:50:10.614Z,9.55
2018-10-11T22:52:37.560Z,9.00
2018-10-11T22:55:04.570Z,9.03
2018-10-11T22:57:31.538Z,10.90
2018-10-11T22:59:58.502Z,9.78
2018-10-11T23:02:25.481Z,9.00
2018-10-11T23:04:52.435Z,9.18
2018-10-11T23:07:19.385Z,9.10
2018-10-11T23:09:46.752Z,9.15
2018-10-11T23:12:13.703Z,8.70
2018-10-11T23:14:40.774Z,9.55
2018-10-11T23:17:07.691Z,10.98
2018-10-11T23:19:34.633Z,8.93
2018-10-11T23:22:01.594Z,8.10
2018-10-11T23:24:28.580Z,8.13
2018-10-11T23:26:55.667Z,7.42
2018-10-11T23:29:22.615Z,7.37
2018-10-11T23:31:49.598Z,8.38
2018-10-11T23:34:16.550Z,8.50
2018-10-11T23:36:43.533Z,7.40
2018-10-11T23:39:11.687Z,8.53
2018-10-11T23:41:39.058Z,7.12
2018-10-11T23:44:06.059Z,7.23
2018-10-11T23:46:33.043Z,6.97
2018-10-11T23:48:59.998Z,7.45
2018-10-11T23:51:26.954Z,7.97
2018-10-11T23:53:53.934Z,7.53
2018-10-11T23:56:20.897Z,7.22
2018-10-11T23:58:47.861Z,6.65
